sensor_id;sensor_type;location;lat;lon;timestamp;P1;durP1;ratioP1;P2;durP2;ratioP2
10461;SDS011;5278;42.656;23.374;2023-01-10T00:00:06;23.10;;;12.93;;
10461;SDS011;5278;42.656;23.374;2023-01-10T00:02:34;22.53;;;12.63;;
10461;SDS011;5278;42.656;23.374;2023-01-10T00:05:01;20.67;;;13.07;;
10461;SDS011;5278;42.656;23.374;2023-01-10T00:07:29;21.20;;;12.80;;
10461;SDS011;5278;42.656;23.374;2023-01-10T00:09:56;19.47;;;11.87;;
10461;SDS011;5278;42.656;23.374;2023-01-10T00:12:25;22.10;;;12.93;;
10461;SDS011;5278;42.656;23.374;2023-01-10T00:15:09;22.80;;;13.73;;
10461;SDS011;5278;42.656;23.374;2023-01-10T00:17:36;22.00;;;13.10;;
10461;SDS011;5278;42.656;23.374;2023-01-10T00:20:04;21.90;;;12.83;;
10461;SDS011;5278;42.656;23.374;2023-01-10T00:22:32;24.67;;;13.83;;
10461;SDS011;5278;42.656;23.374;2023-01-10T00:24:59;19.73;;;11.07;;
10461;SDS011;5278;42.656;23.374;2023-01-10T00:27:27;18.70;;;11.67;;
10461;SDS011;5278;42.656;23.374;2023-01-10T00:29:54;22.37;;;12.83;;
10461;SDS011;5278;42.656;23.374;2023-01-10T00:32:22;19.43;;;11.90;;
10461;SDS011;5278;42.656;23.374;2023-01-10T00:34:49;19.60;;;11.83;;
10461;SDS011;5278;42.656;23.374;2023-01-10T00:37:16;25.30;;;13.07;;
10461;SDS011;5278;42.656;23.374;2023-01-10T00:39:42;21.73;;;12.57;;
10461;SDS011;5278;42.656;23.374;2023-01-10T00:42:09;20.87;;;11.40;;
10461;SDS011;5278;42.656;23.374;2023-01-10T00:44:56;18.47;;;11.47;;
10461;SDS011;5278;42.656;23.374;2023-01-10T00:47:23;20.70;;;11.40;;
10461;SDS011;5278;42.656;23.374;2023-01-10T00:49:50;20.77;;;13.20;;
10461;SDS011;5278;42.656;23.374;2023-01-10T00:52:16;19.73;;;12.00;;
10461;SDS011;5278;42.656;23.374;2023-01-10T00:54:43;22.60;;;12.57;;
10461;SDS011;5278;42.656;23.374;2023-01-10T00:57:10;22.47;;;11.83;;
10461;SDS011;5278;42.656;23.374;2023-01-10T00:59:38;21.63;;;12.33;;
10461;SDS011;5278;42.656;23.374;2023-01-10T01:02:07;17.97;;;10.80;;
10461;SDS011;5278;42.656;23.374;2023-01-10T01:04:34;20.10;;;12.03;;
10461;SDS011;5278;42.656;23.374;2023-01-10T01:07:01;17.87;;;12.13;;
10461;SDS011;5278;42.656;23.374;2023-01-10T01:09:28;18.10;;;12.17;;
10461;SDS011;5278;42.656;23.374;2023-01-10T01:11:55;20.60;;;11.97;;
10461;SDS011;5278;42.656;23.374;2023-01-10T01:14:23;21.90;;;12.90;;
10461;SDS011;5278;42.656;23.374;2023-01-10T01:16:50;19.30;;;11.67;;
10461;SDS011;5278;42.656;23.374;2023-01-10T01:19:18;19.30;;;11.97;;
10461;SDS011;5278;42.656;23.374;2023-01-10T01:21:45;21.73;;;12.43;;
10461;SDS011;5278;42.656;23.374;2023-01-10T01:24:12;18.93;;;12.47;;
10461;SDS011;5278;42.656;23.374;2023-01-10T01:26:39;16.87;;;11.30;;
10461;SDS011;5278;42.656;23.374;2023-01-10T01:29:06;18.50;;;11.53;;
10461;SDS011;5278;42.656;23.374;2023-01-10T01:31:35;21.50;;;12.83;;
10461;SDS011;5278;42.656;23.374;2023-01-10T01:34:02;22.30;;;12.13;;
10461;SDS011;5278;42.656;23.374;2023-01-10T01:36:30;18.37;;;10.87;;
10461;SDS011;5278;42.656;23.374;2023-01-10T01:38:57;18.40;;;12.03;;
10461;SDS011;5278;42.656;23.374;2023-01-10T01:41:24;18.07;;;11.23;;
10461;SDS011;5278;42.656;23.374;2023-01-10T01:44:09;21.07;;;12.13;;
10461;SDS011;5278;42.656;23.374;2023-01-10T01:46:40;20.20;;;10.70;;
10461;SDS011;5278;42.656;23.374;2023-01-10T01:49:12;15.20;;;10.10;;
10461;SDS011;5278;42.656;23.374;2023-01-10T01:51:46;14.30;;;10.20;;
10461;SDS011;5278;42.656;23.374;2023-01-10T01:54:15;16.33;;;10.83;;
10461;SDS011;5278;42.656;23.374;2023-01-10T01:56:44;16.63;;;11.13;;
10461;SDS011;5278;42.656;23.374;2023-01-10T01:59:16;16.57;;;10.83;;
10461;SDS011;5278;42.656;23.374;2023-01-10T02:01:46;17.23;;;12.00;;
10461;SDS011;5278;42.656;23.374;2023-01-10T02:04:18;20.90;;;12.30;;
10461;SDS011;5278;42.656;23.374;2023-01-10T02:06:50;18.23;;;11.60;;
10461;SDS011;5278;42.656;23.374;2023-01-10T02:09:21;20.60;;;12.37;;
10461;SDS011;5278;42.656;23.374;2023-01-10T02:11:52;19.37;;;11.73;;
10461;SDS011;5278;42.656;23.374;2023-01-10T02:14:19;20.10;;;11.10;;
10461;SDS011;5278;42.656;23.374;2023-01-10T02:16:48;16.47;;;10.57;;
10461;SDS011;5278;42.656;23.374;2023-01-10T02:19:16;16.43;;;10.67;;
10461;SDS011;5278;42.656;23.374;2023-01-10T02:25:19;16.70;;;10.87;;
10461;SDS011;5278;42.656;23.374;2023-01-10T02:28:09;18.23;;;11.17;;
10461;SDS011;5278;42.656;23.374;2023-01-10T02:30:59;15.00;;;10.17;;
10461;SDS011;5278;42.656;23.374;2023-01-10T02:33:43;17.13;;;11.17;;
10461;SDS011;5278;42.656;23.374;2023-01-10T02:36:19;17.67;;;10.63;;
10461;SDS011;5278;42.656;23.374;2023-01-10T02:38:57;18.90;;;11.50;;
10461;SDS011;5278;42.656;23.374;2023-01-10T02:41:30;18.20;;;11.07;;
10461;SDS011;5278;42.656;23.374;2023-01-10T02:44:03;14.97;;;10.40;;
10461;SDS011;5278;42.656;23.374;2023-01-10T02:46:36;18.93;;;11.77;;
10461;SDS011;5278;42.656;23.374;2023-01-10T02:49:06;15.73;;;10.13;;
10461;SDS011;5278;42.656;23.374;2023-01-10T02:51:33;16.77;;;10.07;;
10461;SDS011;5278;42.656;23.374;2023-01-10T02:54:01;17.33;;;10.83;;
10461;SDS011;5278;42.656;23.374;2023-01-10T02:56:43;14.93;;;10.33;;
10461;SDS011;5278;42.656;23.374;2023-01-10T02:59:37;16.60;;;9.70;;
10461;SDS011;5278;42.656;23.374;2023-01-10T03:02:19;15.73;;;10.07;;
10461;SDS011;5278;42.656;23.374;2023-01-10T03:04:57;16.03;;;10.67;;
10461;SDS011;5278;42.656;23.374;2023-01-10T03:07:34;16.47;;;10.63;;
10461;SDS011;5278;42.656;23.374;2023-01-10T03:10:05;17.73;;;11.37;;
10461;SDS011;5278;42.656;23.374;2023-01-10T03:12:37;16.17;;;10.50;;
10461;SDS011;5278;42.656;23.374;2023-01-10T03:15:09;15.83;;;10.73;;
10461;SDS011;5278;42.656;23.374;2023-01-10T03:17:39;15.73;;;10.60;;
10461;SDS011;5278;42.656;23.374;2023-01-10T03:20:12;12.93;;;9.57;;
10461;SDS011;5278;42.656;23.374;2023-01-10T03:22:42;16.43;;;10.37;;
10461;SDS011;5278;42.656;23.374;2023-01-10T03:25:10;17.63;;;9.67;;
10461;SDS011;5278;42.656;23.374;2023-01-10T03:27:43;17.97;;;11.50;;
10461;SDS011;5278;42.656;23.374;2023-01-10T03:30:17;16.20;;;10.13;;
10461;SDS011;5278;42.656;23.374;2023-01-10T03:32:52;14.63;;;9.40;;
10461;SDS011;5278;42.656;23.374;2023-01-10T03:35:23;15.80;;;10.30;;
10461;SDS011;5278;42.656;23.374;2023-01-10T03:37:58;18.03;;;11.07;;
10461;SDS011;5278;42.656;23.374;2023-01-10T03:40:33;14.03;;;9.33;;
10461;SDS011;5278;42.656;23.374;2023-01-10T03:43:07;18.90;;;11.23;;
10461;SDS011;5278;42.656;23.374;2023-01-10T03:45:59;14.90;;;10.20;;
10461;SDS011;5278;42.656;23.374;2023-01-10T03:48:31;17.23;;;10.63;;
10461;SDS011;5278;42.656;23.374;2023-01-10T03:51:03;14.40;;;10.50;;
10461;SDS011;5278;42.656;23.374;2023-01-10T03:53:33;13.80;;;9.73;;
10461;SDS011;5278;42.656;23.374;2023-01-10T03:56:03;15.50;;;10.37;;
10461;SDS011;5278;42.656;23.374;2023-01-10T03:58:30;16.33;;;10.83;;
10461;SDS011;5278;42.656;23.374;2023-01-10T04:00:57;16.43;;;11.20;;
10461;SDS011;5278;42.656;23.374;2023-01-10T04:03:24;15.17;;;10.83;;
10461;SDS011;5278;42.656;23.374;2023-01-10T04:05:50;12.70;;;9.77;;
10461;SDS011;5278;42.656;23.374;2023-01-10T04:08:19;18.53;;;10.83;;
10461;SDS011;5278;42.656;23.374;2023-01-10T04:10:47;18.97;;;10.53;;
10461;SDS011;5278;42.656;23.374;2023-01-10T04:13:14;18.00;;;10.13;;
10461;SDS011;5278;42.656;23.374;2023-01-10T04:15:41;15.13;;;9.80;;
10461;SDS011;5278;42.656;23.374;2023-01-10T04:18:09;14.53;;;10.27;;
10461;SDS011;5278;42.656;23.374;2023-01-10T04:20:37;17.93;;;11.70;;
10461;SDS011;5278;42.656;23.374;2023-01-10T04:23:03;15.83;;;10.47;;
10461;SDS011;5278;42.656;23.374;2023-01-10T04:25:32;15.57;;;10.90;;
10461;SDS011;5278;42.656;23.374;2023-01-10T04:27:59;15.93;;;10.30;;
10461;SDS011;5278;42.656;23.374;2023-01-10T04:30:26;15.90;;;10.70;;
10461;SDS011;5278;42.656;23.374;2023-01-10T04:32:53;16.27;;;10.77;;
10461;SDS011;5278;42.656;23.374;2023-01-10T04:35:19;17.00;;;11.90;;
10461;SDS011;5278;42.656;23.374;2023-01-10T04:37:46;15.67;;;11.20;;
10461;SDS011;5278;42.656;23.374;2023-01-10T04:40:13;15.73;;;11.47;;
10461;SDS011;5278;42.656;23.374;2023-01-10T04:42:44;14.33;;;10.10;;
10461;SDS011;5278;42.656;23.374;2023-01-10T04:45:11;16.67;;;10.80;;
10461;SDS011;5278;42.656;23.374;2023-01-10T04:47:41;15.13;;;11.03;;
10461;SDS011;5278;42.656;23.374;2023-01-10T04:50:09;18.17;;;10.83;;
10461;SDS011;5278;42.656;23.374;2023-01-10T04:52:37;17.17;;;11.67;;
10461;SDS011;5278;42.656;23.374;2023-01-10T04:55:05;16.53;;;11.43;;
10461;SDS011;5278;42.656;23.374;2023-01-10T04:57:32;14.93;;;10.67;;
10461;SDS011;5278;42.656;23.374;2023-01-10T05:00:01;15.10;;;9.87;;
10461;SDS011;5278;42.656;23.374;2023-01-10T05:02:29;14.57;;;9.70;;
10461;SDS011;5278;42.656;23.374;2023-01-10T05:04:56;15.17;;;10.20;;
10461;SDS011;5278;42.656;23.374;2023-01-10T05:07:24;16.00;;;10.33;;
10461;SDS011;5278;42.656;23.374;2023-01-10T05:09:51;17.00;;;11.03;;
10461;SDS011;5278;42.656;23.374;2023-01-10T05:12:18;16.13;;;9.80;;
10461;SDS011;5278;42.656;23.374;2023-01-10T05:14:45;13.70;;;9.77;;
10461;SDS011;5278;42.656;23.374;2023-01-10T05:17:13;13.90;;;9.80;;
10461;SDS011;5278;42.656;23.374;2023-01-10T05:19:40;16.83;;;10.67;;
10461;SDS011;5278;42.656;23.374;2023-01-10T05:22:07;16.17;;;10.97;;
10461;SDS011;5278;42.656;23.374;2023-01-10T05:24:34;16.83;;;10.87;;
10461;SDS011;5278;42.656;23.374;2023-01-10T05:27:01;16.17;;;10.93;;
10461;SDS011;5278;42.656;23.374;2023-01-10T05:29:28;16.73;;;11.33;;
10461;SDS011;5278;42.656;23.374;2023-01-10T05:31:55;20.70;;;11.47;;
10461;SDS011;5278;42.656;23.374;2023-01-10T05:34:26;20.23;;;11.90;;
10461;SDS011;5278;42.656;23.374;2023-01-10T05:36:53;15.80;;;10.87;;
10461;SDS011;5278;42.656;23.374;2023-01-10T05:39:20;16.73;;;10.67;;
10461;SDS011;5278;42.656;23.374;2023-01-10T05:41:47;16.90;;;10.27;;
10461;SDS011;5278;42.656;23.374;2023-01-10T05:44:16;16.53;;;11.30;;
10461;SDS011;5278;42.656;23.374;2023-01-10T05:46:42;16.13;;;10.23;;
10461;SDS011;5278;42.656;23.374;2023-01-10T05:49:09;14.43;;;10.20;;
10461;SDS011;5278;42.656;23.374;2023-01-10T05:51:37;15.00;;;9.93;;
10461;SDS011;5278;42.656;23.374;2023-01-10T05:54:06;17.13;;;10.97;;
10461;SDS011;5278;42.656;23.374;2023-01-10T05:56:33;16.70;;;10.87;;
10461;SDS011;5278;42.656;23.374;2023-01-10T05:58:59;15.30;;;10.17;;
10461;SDS011;5278;42.656;23.374;2023-01-10T06:01:27;16.70;;;10.03;;
10461;SDS011;5278;42.656;23.374;2023-01-10T06:03:53;16.70;;;11.00;;
10461;SDS011;5278;42.656;23.374;2023-01-10T06:06:20;16.87;;;11.20;;
10461;SDS011;5278;42.656;23.374;2023-01-10T06:08:49;17.63;;;10.97;;
10461;SDS011;5278;42.656;23.374;2023-01-10T06:11:19;14.73;;;9.83;;
10461;SDS011;5278;42.656;23.374;2023-01-10T06:13:46;15.97;;;11.17;;
10461;SDS011;5278;42.656;23.374;2023-01-10T06:16:17;17.23;;;10.60;;
10461;SDS011;5278;42.656;23.374;2023-01-10T06:18:44;14.80;;;9.97;;
10461;SDS011;5278;42.656;23.374;2023-01-10T06:21:11;17.30;;;11.93;;
10461;SDS011;5278;42.656;23.374;2023-01-10T06:23:38;14.33;;;9.67;;
10461;SDS011;5278;42.656;23.374;2023-01-10T06:26:06;14.83;;;9.80;;
10461;SDS011;5278;42.656;23.374;2023-01-10T06:28:33;13.67;;;9.43;;
10461;SDS011;5278;42.656;23.374;2023-01-10T06:31:00;14.77;;;10.17;;
10461;SDS011;5278;42.656;23.374;2023-01-10T06:33:27;26.77;;;15.20;;
10461;SDS011;5278;42.656;23.374;2023-01-10T06:35:54;23.00;;;13.57;;
10461;SDS011;5278;42.656;23.374;2023-01-10T06:38:21;17.40;;;11.47;;
10461;SDS011;5278;42.656;23.374;2023-01-10T06:40:47;18.10;;;11.20;;
10461;SDS011;5278;42.656;23.374;2023-01-10T06:43:16;21.00;;;12.33;;
10461;SDS011;5278;42.656;23.374;2023-01-10T06:45:43;19.93;;;11.77;;
10461;SDS011;5278;42.656;23.374;2023-01-10T06:48:10;16.17;;;11.17;;
10461;SDS011;5278;42.656;23.374;2023-01-10T06:50:38;18.13;;;11.93;;
10461;SDS011;5278;42.656;23.374;2023-01-10T06:53:06;24.83;;;13.10;;
10461;SDS011;5278;42.656;23.374;2023-01-10T06:55:34;20.20;;;13.10;;
10461;SDS011;5278;42.656;23.374;2023-01-10T06:58:02;20.50;;;12.67;;
10461;SDS011;5278;42.656;23.374;2023-01-10T07:00:32;20.97;;;12.37;;
10461;SDS011;5278;42.656;23.374;2023-01-10T07:03:00;15.20;;;10.63;;
10461;SDS011;5278;42.656;23.374;2023-01-10T07:05:27;17.33;;;11.20;;
10461;SDS011;5278;42.656;23.374;2023-01-10T07:07:54;18.43;;;10.97;;
10461;SDS011;5278;42.656;23.374;2023-01-10T07:10:22;16.27;;;11.30;;
10461;SDS011;5278;42.656;23.374;2023-01-10T07:12:53;15.43;;;11.03;;
10461;SDS011;5278;42.656;23.374;2023-01-10T07:15:20;19.27;;;11.77;;
10461;SDS011;5278;42.656;23.374;2023-01-10T07:17:49;18.63;;;12.03;;
10461;SDS011;5278;42.656;23.374;2023-01-10T07:20:16;19.63;;;11.97;;
10461;SDS011;5278;42.656;23.374;2023-01-10T07:22:43;18.90;;;11.63;;
10461;SDS011;5278;42.656;23.374;2023-01-10T07:25:20;18.43;;;11.57;;
10461;SDS011;5278;42.656;23.374;2023-01-10T07:27:47;18.57;;;12.73;;
10461;SDS011;5278;42.656;23.374;2023-01-10T07:30:14;19.30;;;11.20;;
10461;SDS011;5278;42.656;23.374;2023-01-10T07:32:42;17.33;;;11.50;;
10461;SDS011;5278;42.656;23.374;2023-01-10T07:35:11;22.80;;;10.93;;
10461;SDS011;5278;42.656;23.374;2023-01-10T07:37:37;17.83;;;11.13;;
10461;SDS011;5278;42.656;23.374;2023-01-10T07:40:05;17.33;;;11.37;;
10461;SDS011;5278;42.656;23.374;2023-01-10T07:42:33;18.93;;;11.07;;
10461;SDS011;5278;42.656;23.374;2023-01-10T07:45:00;19.10;;;12.37;;
10461;SDS011;5278;42.656;23.374;2023-01-10T07:47:27;15.60;;;11.90;;
10461;SDS011;5278;42.656;23.374;2023-01-10T07:49:55;17.07;;;10.83;;
10461;SDS011;5278;42.656;23.374;2023-01-10T07:52:26;17.10;;;10.73;;
10461;SDS011;5278;42.656;23.374;2023-01-10T07:54:53;15.23;;;9.80;;
10461;SDS011;5278;42.656;23.374;2023-01-10T07:57:21;12.80;;;8.67;;
10461;SDS011;5278;42.656;23.374;2023-01-10T07:59:48;15.70;;;9.43;;
10461;SDS011;5278;42.656;23.374;2023-01-10T08:02:15;11.93;;;9.40;;
10461;SDS011;5278;42.656;23.374;2023-01-10T08:04:42;13.97;;;9.10;;
10461;SDS011;5278;42.656;23.374;2023-01-10T08:07:09;26.70;;;15.63;;
10461;SDS011;5278;42.656;23.374;2023-01-10T08:09:37;25.10;;;15.43;;
10461;SDS011;5278;42.656;23.374;2023-01-10T08:12:04;22.40;;;14.23;;
10461;SDS011;5278;42.656;23.374;2023-01-10T08:14:31;32.93;;;17.93;;
10461;SDS011;5278;42.656;23.374;2023-01-10T08:16:58;27.10;;;15.53;;
10461;SDS011;5278;42.656;23.374;2023-01-10T08:19:25;26.03;;;14.70;;
10461;SDS011;5278;42.656;23.374;2023-01-10T08:21:53;30.27;;;16.33;;
10461;SDS011;5278;42.656;23.374;2023-01-10T08:24:20;22.33;;;15.07;;
10461;SDS011;5278;42.656;23.374;2023-01-10T08:26:49;26.07;;;17.40;;
10461;SDS011;5278;42.656;23.374;2023-01-10T08:29:16;32.77;;;18.73;;
10461;SDS011;5278;42.656;23.374;2023-01-10T08:31:44;37.33;;;21.50;;
10461;SDS011;5278;42.656;23.374;2023-01-10T08:34:11;35.10;;;18.47;;
10461;SDS011;5278;42.656;23.374;2023-01-10T08:36:40;26.33;;;14.97;;
10461;SDS011;5278;42.656;23.374;2023-01-10T08:39:07;24.47;;;16.13;;
10461;SDS011;5278;42.656;23.374;2023-01-10T08:41:34;24.30;;;15.77;;
10461;SDS011;5278;42.656;23.374;2023-01-10T08:44:05;28.30;;;17.90;;
10461;SDS011;5278;42.656;23.374;2023-01-10T08:46:31;27.23;;;16.90;;
10461;SDS011;5278;42.656;23.374;2023-01-10T08:48:58;24.03;;;14.93;;
10461;SDS011;5278;42.656;23.374;2023-01-10T08:51:25;23.10;;;14.47;;
10461;SDS011;5278;42.656;23.374;2023-01-10T08:53:52;18.50;;;12.37;;
10461;SDS011;5278;42.656;23.374;2023-01-10T08:56:20;24.47;;;15.50;;
10461;SDS011;5278;42.656;23.374;2023-01-10T08:58:47;25.90;;;17.17;;
10461;SDS011;5278;42.656;23.374;2023-01-10T09:01:15;27.07;;;17.00;;
10461;SDS011;5278;42.656;23.374;2023-01-10T09:03:42;32.70;;;19.57;;
10461;SDS011;5278;42.656;23.374;2023-01-10T09:06:09;27.33;;;17.90;;
10461;SDS011;5278;42.656;23.374;2023-01-10T09:08:37;27.90;;;18.27;;
10461;SDS011;5278;42.656;23.374;2023-01-10T09:11:04;33.70;;;20.60;;
10461;SDS011;5278;42.656;23.374;2023-01-10T09:13:31;43.50;;;25.23;;
10461;SDS011;5278;42.656;23.374;2023-01-10T09:15:59;31.40;;;18.53;;
10461;SDS011;5278;42.656;23.374;2023-01-10T09:18:27;28.37;;;17.20;;
10461;SDS011;5278;42.656;23.374;2023-01-10T09:20:54;26.37;;;16.77;;
10461;SDS011;5278;42.656;23.374;2023-01-10T09:23:21;24.47;;;16.10;;
10461;SDS011;5278;42.656;23.374;2023-01-10T09:25:49;23.60;;;15.57;;
10461;SDS011;5278;42.656;23.374;2023-01-10T09:28:18;29.47;;;19.13;;
10461;SDS011;5278;42.656;23.374;2023-01-10T09:30:46;28.03;;;17.87;;
10461;SDS011;5278;42.656;23.374;2023-01-10T09:33:13;29.33;;;18.83;;
10461;SDS011;5278;42.656;23.374;2023-01-10T09:35:42;26.80;;;16.93;;
10461;SDS011;5278;42.656;23.374;2023-01-10T09:38:10;27.53;;;17.70;;
10461;SDS011;5278;42.656;23.374;2023-01-10T09:40:51;28.27;;;17.50;;
10461;SDS011;5278;42.656;23.374;2023-01-10T09:43:33;24.67;;;16.00;;
10461;SDS011;5278;42.656;23.374;2023-01-10T09:46:09;26.57;;;16.60;;
10461;SDS011;5278;42.656;23.374;2023-01-10T09:48:47;27.33;;;17.20;;
10461;SDS011;5278;42.656;23.374;2023-01-10T09:51:25;27.17;;;17.50;;
10461;SDS011;5278;42.656;23.374;2023-01-10T09:53:59;37.00;;;23.73;;
10461;SDS011;5278;42.656;23.374;2023-01-10T09:56:29;32.10;;;19.90;;
10461;SDS011;5278;42.656;23.374;2023-01-10T09:58:59;43.73;;;23.83;;
10461;SDS011;5278;42.656;23.374;2023-01-10T10:01:28;45.40;;;25.20;;
10461;SDS011;5278;42.656;23.374;2023-01-10T10:04:04;70.20;;;32.90;;
10461;SDS011;5278;42.656;23.374;2023-01-10T10:06:42;67.43;;;34.20;;
10461;SDS011;5278;42.656;23.374;2023-01-10T10:09:10;41.03;;;24.27;;
10461;SDS011;5278;42.656;23.374;2023-01-10T10:11:46;31.83;;;20.40;;
10461;SDS011;5278;42.656;23.374;2023-01-10T10:14:22;31.73;;;20.07;;
10461;SDS011;5278;42.656;23.374;2023-01-10T10:17:04;26.87;;;19.80;;
10461;SDS011;5278;42.656;23.374;2023-01-10T10:19:50;31.17;;;20.17;;
10461;SDS011;5278;42.656;23.374;2023-01-10T10:22:34;34.57;;;21.13;;
10461;SDS011;5278;42.656;23.374;2023-01-10T10:25:19;32.67;;;23.10;;
10461;SDS011;5278;42.656;23.374;2023-01-10T10:28:01;32.03;;;22.40;;
10461;SDS011;5278;42.656;23.374;2023-01-10T10:30:44;26.87;;;17.27;;
10461;SDS011;5278;42.656;23.374;2023-01-10T10:33:29;27.37;;;18.03;;
10461;SDS011;5278;42.656;23.374;2023-01-10T10:36:05;38.73;;;27.63;;
10461;SDS011;5278;42.656;23.374;2023-01-10T10:38:40;28.13;;;20.73;;
10461;SDS011;5278;42.656;23.374;2023-01-10T10:41:12;26.00;;;18.00;;
10461;SDS011;5278;42.656;23.374;2023-01-10T10:43:42;21.83;;;16.63;;
10461;SDS011;5278;42.656;23.374;2023-01-10T10:46:12;21.97;;;17.20;;
10461;SDS011;5278;42.656;23.374;2023-01-10T10:48:40;22.13;;;17.03;;
10461;SDS011;5278;42.656;23.374;2023-01-10T10:51:13;21.53;;;16.83;;
10461;SDS011;5278;42.656;23.374;2023-01-10T10:53:46;20.33;;;16.00;;
10461;SDS011;5278;42.656;23.374;2023-01-10T10:56:14;22.23;;;17.07;;
10461;SDS011;5278;42.656;23.374;2023-01-10T10:58:43;23.57;;;17.67;;
10461;SDS011;5278;42.656;23.374;2023-01-10T11:01:15;21.47;;;17.20;;
10461;SDS011;5278;42.656;23.374;2023-01-10T11:03:45;24.30;;;17.83;;
10461;SDS011;5278;42.656;23.374;2023-01-10T11:06:14;25.70;;;17.30;;
10461;SDS011;5278;42.656;23.374;2023-01-10T11:08:44;22.20;;;16.77;;
10461;SDS011;5278;42.656;23.374;2023-01-10T11:11:17;24.23;;;17.73;;
10461;SDS011;5278;42.656;23.374;2023-01-10T11:13:48;26.77;;;18.77;;
10461;SDS011;5278;42.656;23.374;2023-01-10T11:16:22;27.40;;;19.37;;
10461;SDS011;5278;42.656;23.374;2023-01-10T11:19:08;24.10;;;17.07;;
10461;SDS011;5278;42.656;23.374;2023-01-10T11:21:44;29.30;;;19.13;;
10461;SDS011;5278;42.656;23.374;2023-01-10T11:24:22;29.23;;;19.30;;
10461;SDS011;5278;42.656;23.374;2023-01-10T11:26:53;26.83;;;19.10;;
10461;SDS011;5278;42.656;23.374;2023-01-10T11:29:21;25.90;;;19.77;;
10461;SDS011;5278;42.656;23.374;2023-01-10T11:31:51;28.83;;;20.03;;
10461;SDS011;5278;42.656;23.374;2023-01-10T11:34:21;27.60;;;20.40;;
10461;SDS011;5278;42.656;23.374;2023-01-10T11:36:51;34.07;;;20.00;;
10461;SDS011;5278;42.656;23.374;2023-01-10T11:39:23;29.67;;;20.30;;
10461;SDS011;5278;42.656;23.374;2023-01-10T11:41:52;32.83;;;20.90;;
10461;SDS011;5278;42.656;23.374;2023-01-10T11:44:21;30.70;;;19.43;;
10461;SDS011;5278;42.656;23.374;2023-01-10T11:46:51;31.03;;;21.00;;
10461;SDS011;5278;42.656;23.374;2023-01-10T11:49:24;36.07;;;23.93;;
10461;SDS011;5278;42.656;23.374;2023-01-10T11:51:55;32.67;;;21.67;;
10461;SDS011;5278;42.656;23.374;2023-01-10T11:54:26;36.27;;;23.07;;
10461;SDS011;5278;42.656;23.374;2023-01-10T11:56:57;34.20;;;21.93;;
10461;SDS011;5278;42.656;23.374;2023-01-10T11:59:25;38.80;;;23.07;;
10461;SDS011;5278;42.656;23.374;2023-01-10T12:01:58;33.90;;;20.60;;
10461;SDS011;5278;42.656;23.374;2023-01-10T12:04:30;29.43;;;20.83;;
10461;SDS011;5278;42.656;23.374;2023-01-10T12:07:00;31.73;;;20.50;;
10461;SDS011;5278;42.656;23.374;2023-01-10T12:09:31;31.23;;;22.17;;
10461;SDS011;5278;42.656;23.374;2023-01-10T12:12:12;29.97;;;19.90;;
10461;SDS011;5278;42.656;23.374;2023-01-10T12:14:42;28.43;;;20.37;;
10461;SDS011;5278;42.656;23.374;2023-01-10T12:17:15;32.37;;;20.67;;
10461;SDS011;5278;42.656;23.374;2023-01-10T12:19:47;35.00;;;22.57;;
10461;SDS011;5278;42.656;23.374;2023-01-10T12:22:17;35.20;;;23.23;;
10461;SDS011;5278;42.656;23.374;2023-01-10T12:24:46;27.60;;;19.00;;
10461;SDS011;5278;42.656;23.374;2023-01-10T12:27:18;28.67;;;19.33;;
10461;SDS011;5278;42.656;23.374;2023-01-10T12:29:50;27.30;;;18.83;;
10461;SDS011;5278;42.656;23.374;2023-01-10T12:32:25;30.27;;;20.97;;
10461;SDS011;5278;42.656;23.374;2023-01-10T12:34:58;28.50;;;18.17;;
10461;SDS011;5278;42.656;23.374;2023-01-10T12:37:29;30.40;;;18.83;;
10461;SDS011;5278;42.656;23.374;2023-01-10T12:40:03;41.00;;;27.63;;
10461;SDS011;5278;42.656;23.374;2023-01-10T12:42:42;32.47;;;22.63;;
10461;SDS011;5278;42.656;23.374;2023-01-10T12:45:31;26.70;;;17.83;;
10461;SDS011;5278;42.656;23.374;2023-01-10T12:48:06;23.53;;;17.43;;
10461;SDS011;5278;42.656;23.374;2023-01-10T12:50:41;24.27;;;17.33;;
10461;SDS011;5278;42.656;23.374;2023-01-10T12:53:12;22.93;;;17.07;;
10461;SDS011;5278;42.656;23.374;2023-01-10T12:55:49;25.93;;;18.17;;
10461;SDS011;5278;42.656;23.374;2023-01-10T12:58:25;24.17;;;17.73;;
10461;SDS011;5278;42.656;23.374;2023-01-10T13:00:59;25.20;;;17.37;;
10461;SDS011;5278;42.656;23.374;2023-01-10T13:03:30;23.73;;;16.60;;
10461;SDS011;5278;42.656;23.374;2023-01-10T13:05:59;23.00;;;16.47;;
10461;SDS011;5278;42.656;23.374;2023-01-10T13:08:27;24.87;;;15.67;;
10461;SDS011;5278;42.656;23.374;2023-01-10T13:10:57;23.90;;;16.30;;
10461;SDS011;5278;42.656;23.374;2023-01-10T13:13:29;22.27;;;16.37;;
10461;SDS011;5278;42.656;23.374;2023-01-10T13:16:03;26.40;;;16.63;;
10461;SDS011;5278;42.656;23.374;2023-01-10T13:21:26;22.93;;;16.07;;
10461;SDS011;5278;42.656;23.374;2023-01-10T13:23:56;24.60;;;17.40;;
10461;SDS011;5278;42.656;23.374;2023-01-10T13:26:25;26.10;;;16.87;;
10461;SDS011;5278;42.656;23.374;2023-01-10T13:28:54;24.70;;;17.50;;
10461;SDS011;5278;42.656;23.374;2023-01-10T13:31:26;22.40;;;16.30;;
10461;SDS011;5278;42.656;23.374;2023-01-10T13:33:56;27.80;;;18.87;;
10461;SDS011;5278;42.656;23.374;2023-01-10T13:36:26;23.17;;;16.13;;
10461;SDS011;5278;42.656;23.374;2023-01-10T13:38:56;23.33;;;16.07;;
10461;SDS011;5278;42.656;23.374;2023-01-10T13:41:32;20.47;;;14.70;;
10461;SDS011;5278;42.656;23.374;2023-01-10T13:48:03;22.00;;;15.10;;
10461;SDS011;5278;42.656;23.374;2023-01-10T13:50:49;22.03;;;16.10;;
10461;SDS011;5278;42.656;23.374;2023-01-10T13:59:11;17.67;;;12.53;;
10461;SDS011;5278;42.656;23.374;2023-01-10T14:01:59;19.87;;;13.13;;
10461;SDS011;5278;42.656;23.374;2023-01-10T14:04:44;18.47;;;13.60;;
10461;SDS011;5278;42.656;23.374;2023-01-10T14:07:18;19.93;;;13.23;;
10461;SDS011;5278;42.656;23.374;2023-01-10T14:09:51;17.53;;;12.43;;
10461;SDS011;5278;42.656;23.374;2023-01-10T14:12:29;14.33;;;11.93;;
10461;SDS011;5278;42.656;23.374;2023-01-10T14:15:01;16.50;;;12.00;;
10461;SDS011;5278;42.656;23.374;2023-01-10T14:17:33;13.90;;;11.07;;
10461;SDS011;5278;42.656;23.374;2023-01-10T14:20:16;14.20;;;10.83;;
10461;SDS011;5278;42.656;23.374;2023-01-10T14:25:44;14.10;;;9.90;;
10461;SDS011;5278;42.656;23.374;2023-01-10T14:28:19;13.57;;;9.97;;
10461;SDS011;5278;42.656;23.374;2023-01-10T14:30:53;13.90;;;9.67;;
10461;SDS011;5278;42.656;23.374;2023-01-10T14:33:28;11.53;;;9.17;;
10461;SDS011;5278;42.656;23.374;2023-01-10T14:35:57;12.87;;;9.17;;
10461;SDS011;5278;42.656;23.374;2023-01-10T14:38:28;13.50;;;9.90;;
10461;SDS011;5278;42.656;23.374;2023-01-10T14:40:57;13.23;;;8.83;;
10461;SDS011;5278;42.656;23.374;2023-01-10T14:43:27;12.27;;;8.47;;
10461;SDS011;5278;42.656;23.374;2023-01-10T14:45:59;10.87;;;7.83;;
10461;SDS011;5278;42.656;23.374;2023-01-10T14:48:32;8.53;;;7.50;;
10461;SDS011;5278;42.656;23.374;2023-01-10T14:51:16;7.13;;;6.37;;
10461;SDS011;5278;42.656;23.374;2023-01-10T14:53:46;8.43;;;6.43;;
10461;SDS011;5278;42.656;23.374;2023-01-10T14:56:21;7.73;;;5.60;;
10461;SDS011;5278;42.656;23.374;2023-01-10T14:58:49;6.50;;;5.30;;
10461;SDS011;5278;42.656;23.374;2023-01-10T15:01:20;8.93;;;5.43;;